Time;durP1;ratioP1;P1;durP2;ratioP2;P2;SDS_P1;SDS_P2;PMS_P1;PMS_P2;Temp;Humidity;BMP_temperature;BMP_pressure;BME280_temperature;BME280_humidity;BME280_pressure;Samples;Min_cycle;Max_cycle;Signal;HPM_P1;HPM_P2
2022/11/14 00:00:27;;;;;;;1999.90;999.90;;;;;;;4.92;100.00;94160.09;5016835;28;20242;-59
2022/11/14 00:02:53;;;;;;;1999.90;999.90;;;;;;;4.89;100.00;94148.16;5017663;28;20183;-59
2022/11/14 00:05:19;;;;;;;1999.90;999.90;;;;;;;4.86;100.00;94143.53;5017781;28;20286;-59
2022/11/14 00:07:46;;;;;;;1999.90;999.90;;;;;;;4.87;100.00;94139.66;5017017;28;20231;-59
2022/11/14 00:10:12;;;;;;;1999.90;999.90;;;;;;;4.79;100.00;94134.69;5017124;28;20179;-59
2022/11/14 00:12:38;;;;;;;1999.90;999.90;;;;;;;4.62;100.00;94138.31;5016679;28;20186;-59
2022/11/14 00:15:04;;;;;;;1999.90;999.90;;;;;;;4.62;100.00;94144.44;5017387;28;20199;-60
2022/11/14 00:17:29;;;;;;;1999.90;999.90;;;;;;;4.62;100.00;94138.31;5017190;28;20574;-59
2022/11/14 00:19:54;;;;;;;1999.90;999.90;;;;;;;4.65;100.00;94137.47;5016957;28;20257;-59
2022/11/14 00:22:20;;;;;;;1999.90;999.90;;;;;;;4.69;100.00;94127.41;5016903;28;20189;-59
2022/11/14 00:24:45;;;;;;;1999.90;999.90;;;;;;;4.77;100.00;94128.94;5017403;28;20271;-59
2022/11/14 00:27:11;;;;;;;1999.90;999.90;;;;;;;4.77;100.00;94128.94;5018998;28;20194;-52
2022/11/14 00:29:37;;;;;;;1999.90;999.90;;;;;;;4.82;100.00;94128.50;5020715;28;20179;-55
2022/11/14 00:32:03;;;;;;;1999.90;999.90;;;;;;;4.79;100.00;94131.97;5020658;28;20186;-56
2022/11/14 00:34:28;;;;;;;1999.90;999.90;;;;;;;4.88;100.00;94129.63;5020720;28;20182;-55
2022/11/14 00:36:53;;;;;;;1999.90;999.90;;;;;;;4.93;100.00;94121.06;5020701;28;20248;-54
2022/11/14 00:39:18;;;;;;;1999.90;999.90;;;;;;;4.85;100.00;94127.69;5021171;28;20171;-55
2022/11/14 00:41:44;;;;;;;1999.90;999.90;;;;;;;4.71;100.00;94127.78;5020932;28;20178;-55
2022/11/14 00:44:10;;;;;;;1999.90;999.90;;;;;;;4.56;100.00;94137.94;5020336;28;20171;-57
2022/11/14 00:46:36;;;;;;;1999.90;999.90;;;;;;;4.60;100.00;94146.03;5021296;28;20209;-59
2022/11/14 00:49:01;;;;;;;1999.90;999.90;;;;;;;4.52;100.00;94144.53;5021076;28;20262;-59
2022/11/14 00:51:26;;;;;;;1999.90;999.90;;;;;;;4.51;100.00;94140.28;5020749;28;20179;-59
2022/11/14 00:53:52;;;;;;;1999.90;999.90;;;;;;;4.39;100.00;94141.50;5020950;28;20181;-59
2022/11/14 00:56:17;;;;;;;1999.90;999.90;;;;;;;4.41;100.00;94124.91;5019983;28;20202;-59
2022/11/14 00:58:43;;;;;;;1999.90;999.90;;;;;;;4.31;100.00;94112.22;5020112;28;20578;-59
2022/11/14 01:01:08;;;;;;;1999.90;999.90;;;;;;;4.28;100.00;94113.00;5020692;28;20171;-59
2022/11/14 01:03:34;;;;;;;1999.90;999.90;;;;;;;4.20;100.00;94127.72;5019890;28;20686;-57
2022/11/14 01:06:04;;;;;;;1999.90;999.90;;;;;;;4.20;100.00;94128.50;5019905;28;20505;-58
2022/11/14 01:08:30;;;;;;;1999.90;999.90;;;;;;;4.11;100.00;94140.88;5019805;28;20171;-58
2022/11/14 01:10:55;;;;;;;1999.90;999.90;;;;;;;4.10;100.00;94131.22;5020013;28;20181;-57
2022/11/14 01:13:21;;;;;;;1999.90;999.90;;;;;;;4.23;100.00;94116.13;5019981;28;20177;-56
2022/11/14 01:15:48;;;;;;;1999.90;999.90;;;;;;;4.27;100.00;94123.06;5019614;28;20277;-57
2022/11/14 01:18:16;;;;;;;1999.90;999.90;;;;;;;4.29;100.00;94128.06;5019973;28;20209;-58
2022/11/14 01:20:44;;;;;;;1999.90;999.90;;;;;;;4.24;100.00;94144.66;5019375;28;20531;-59
2022/11/14 01:23:11;;;;;;;1999.90;999.90;;;;;;;4.16;100.00;94135.06;5019811;28;20182;-54
2022/11/14 01:25:38;;;;;;;1999.90;999.90;;;;;;;4.14;100.00;94129.28;5019979;28;20221;-54
2022/11/14 01:28:08;;;;;;;1999.90;999.90;;;;;;;4.13;100.00;94127.75;5019729;28;20726;-54
2022/11/14 01:30:35;;;;;;;1999.90;999.90;;;;;;;4.21;100.00;94129.25;5019624;28;20166;-54
2022/11/14 01:33:01;;;;;;;1999.90;999.90;;;;;;;4.21;100.00;94132.72;5020012;28;20175;-56
2022/11/14 01:35:26;;;;;;;1999.90;999.90;;;;;;;4.26;100.00;94126.16;5019207;28;20199;-51
2022/11/14 01:37:52;;;;;;;1999.90;999.90;;;;;;;4.33;100.00;94121.47;5019074;28;20584;-54
2022/11/14 01:40:17;;;;;;;1999.90;999.90;;;;;;;4.37;100.00;94105.25;5020346;28;20222;-52
2022/11/14 01:43:17;;;;;;;1999.90;999.90;;;;;;;4.38;100.00;94095.97;5019853;28;20177;-59
2022/11/14 01:45:52;;;;;;;1999.90;999.90;;;;;;;4.42;100.00;94085.91;5019746;28;20250;-59
2022/11/14 01:48:30;;;;;;;1999.90;999.90;;;;;;;4.42;100.00;94085.91;5019623;28;20178;-59
2022/11/14 01:51:02;;;;;;;1999.90;999.90;;;;;;;4.43;100.00;94082.03;5020064;28;20201;-59
2022/11/14 01:53:27;;;;;;;1999.90;999.90;;;;;;;4.43;100.00;94087.44;5019554;28;20608;-59
2022/11/14 01:55:56;;;;;;;1999.90;999.90;;;;;;;4.41;100.00;94087.06;5019097;28;20252;-59
2022/11/14 01:58:22;;;;;;;1999.90;999.90;;;;;;;4.43;100.00;94099.03;5019275;28;20218;-62
2022/11/14 02:00:47;;;;;;;1999.90;999.90;;;;;;;4.46;100.00;94083.94;5019051;28;20233;-56
2022/11/14 02:03:14;;;;;;;1999.90;999.90;;;;;;;4.46;100.00;94097.44;5019064;28;20247;-57
2022/11/14 02:05:43;;;;;;;1999.90;999.90;;;;;;;4.45;100.00;94095.94;5018760;28;20198;-56
2022/11/14 02:08:12;;;;;;;1999.90;999.90;;;;;;;4.43;100.00;94090.13;5019396;28;20594;-54
2022/11/14 02:10:38;;;;;;;1999.90;999.90;;;;;;;4.44;100.00;94075.47;5018828;28;20178;-56
2022/11/14 02:13:03;;;;;;;1999.90;999.90;;;;;;;4.53;100.00;94067.69;5019532;28;20216;-56
2022/11/14 02:15:28;;;;;;;1999.90;999.90;;;;;;;4.55;100.00;94068.81;5018678;28;20555;-59
2022/11/14 02:17:54;;;;;;;1999.90;999.90;;;;;;;4.61;100.00;94055.66;5018931;28;20393;-59
2022/11/14 02:20:23;;;;;;;1999.90;999.90;;;;;;;4.65;100.00;94049.06;5018673;28;20548;-58
2022/11/14 02:22:48;;;;;;;1999.90;999.90;;;;;;;4.69;100.00;94057.13;5018720;28;20201;-58
2022/11/14 02:25:17;;;;;;;1999.90;999.90;;;;;;;4.66;100.00;94068.75;5019128;28;20178;-58
2022/11/14 02:27:42;;;;;;;1999.90;999.90;;;;;;;4.65;100.00;94072.59;5018176;28;20178;-59
2022/11/14 02:30:15;;;;;;;1999.90;999.90;;;;;;;4.65;100.00;94078.00;5018205;28;20171;-57
2022/11/14 02:32:40;;;;;;;1999.90;999.90;;;;;;;4.64;100.00;94087.28;5019028;28;20167;-56
2022/11/14 02:35:06;;;;;;;1999.90;999.90;;;;;;;4.66;100.00;94095.78;5018394;28;20179;-59
2022/11/14 02:37:32;;;;;;;1999.90;999.90;;;;;;;4.64;100.00;94108.91;5018347;28;20262;-62
2022/11/14 02:39:57;;;;;;;1999.90;999.90;;;;;;;4.61;100.00;94107.00;5018339;28;20214;-61
2022/11/14 02:42:22;;;;;;;1999.90;999.90;;;;;;;4.61;100.00;94098.91;5018381;28;20175;-62
2022/11/14 02:44:48;;;;;;;1999.90;999.90;;;;;;;4.69;100.00;94094.97;5018125;28;20175;-61
2022/11/14 02:47:13;;;;;;;1999.90;999.90;;;;;;;4.67;100.00;94076.47;5018515;28;20508;-61
2022/11/14 02:49:38;;;;;;;1999.90;999.90;;;;;;;4.72;100.00;94072.56;5017385;28;20178;-61
2022/11/14 02:52:03;;;;;;;1999.90;999.90;;;;;;;4.69;100.00;94070.63;5018628;28;20176;-61
2022/11/14 02:54:29;;;;;;;1999.90;999.90;;;;;;;4.67;100.00;94064.88;5018267;28;20270;-57
2022/11/14 02:56:54;;;;;;;1999.90;999.90;;;;;;;4.58;100.00;94068.03;5017736;28;20230;-57
2022/11/14 02:59:20;;;;;;;1999.90;999.90;;;;;;;4.61;100.00;94066.47;5018220;28;20174;-58
2022/11/14 03:01:45;;;;;;;1999.90;999.90;;;;;;;4.63;100.00;94069.53;5018304;28;20179;-58
2022/11/14 03:04:10;;;;;;;1999.90;999.90;;;;;;;4.64;100.00;94068.38;5017715;28;20226;-56
2022/11/14 03:06:36;;;;;;;1999.90;999.90;;;;;;;4.61;100.00;94077.28;5017921;28;20513;-57
2022/11/14 03:09:01;;;;;;;1999.90;999.90;;;;;;;4.63;100.00;94085.75;5017996;28;20186;-57
2022/11/14 03:11:26;;;;;;;1999.90;999.90;;;;;;;4.63;100.00;94080.34;5018108;28;20171;-61
2022/11/14 03:13:51;;;;;;;1999.90;999.90;;;;;;;4.62;100.00;94086.94;5018197;28;20178;-58
2022/11/14 03:16:17;;;;;;;1999.90;999.90;;;;;;;4.58;100.00;94088.88;5018109;28;20714;-58
2022/11/14 03:18:42;;;;;;;1999.90;999.90;;;;;;;4.51;100.00;94105.16;5034015;28;20240;-59
2022/11/14 03:21:17;;;;;;;1999.90;999.90;;;;;;;4.47;100.00;94107.09;5018132;28;20181;-58
2022/11/14 03:23:43;;;;;;;1999.90;999.90;;;;;;;4.49;100.00;94123.69;5017301;28;20170;-58
2022/11/14 03:26:09;;;;;;;1999.90;999.90;;;;;;;4.49;100.00;94123.69;5018077;28;20528;-58
2022/11/14 03:28:36;;;;;;;1999.90;999.90;;;;;;;4.49;100.00;94121.00;5017413;28;20192;-57
2022/11/14 03:31:01;;;;;;;1999.90;999.90;;;;;;;4.47;100.00;94128.72;5017217;28;20199;-52
2022/11/14 03:33:27;;;;;;;1999.90;999.90;;;;;;;4.37;100.00;94140.38;5017872;28;20215;-57
2022/11/14 03:35:53;;;;;;;1999.90;999.90;;;;;;;4.35;100.00;94143.47;5017314;28;20237;-58
2022/11/14 03:38:21;;;;;;;1999.90;999.90;;;;;;;4.37;100.00;94148.47;5017335;28;20540;-58
2022/11/14 03:40:48;;;;;;;1999.90;999.90;;;;;;;4.32;100.00;94157.75;5017901;28;20175;-58
2022/11/14 03:43:14;;;;;;;1999.90;999.90;;;;;;;4.29;100.00;94152.38;5017150;28;20209;-57
2022/11/14 03:45:39;;;;;;;1999.90;999.90;;;;;;;4.31;100.00;94152.75;5017496;28;20179;-57
2022/11/14 03:48:05;;;;;;;1999.90;999.90;;;;;;;4.27;100.00;94149.28;5017189;28;20174;-56
2022/11/14 03:50:31;;;;;;;1999.90;999.90;;;;;;;4.31;100.00;94147.34;5034522;28;20561;-62
2022/11/14 03:52:56;;;;;;;1999.90;999.90;;;;;;;4.28;100.00;94164.31;5017074;28;20195;-62
2022/11/14 03:55:22;;;;;;;1999.90;999.90;;;;;;;4.26;100.00;94177.47;5016991;28;20202;-62
2022/11/14 03:57:47;;;;;;;1999.90;999.90;;;;;;;4.23;100.00;94178.25;5016912;28;20222;-62
2022/11/14 04:00:14;;;;;;;1999.90;999.90;;;;;;;4.15;100.00;94168.66;5017634;28;20174;-62
2022/11/14 04:02:39;;;;;;;1999.90;999.90;;;;;;;4.20;100.00;94176.34;5017022;28;20236;-62
2022/11/14 04:05:05;;;;;;;1999.90;999.90;;;;;;;4.26;100.00;94159.31;5016921;28;20644;-63
2022/11/14 04:07:30;;;;;;;1999.90;999.90;;;;;;;4.31;100.00;94160.84;5017017;28;20656;-50
2022/11/14 04:09:55;;;;;;;1999.90;999.90;;;;;;;4.10;100.00;94188.72;5016834;28;20185;-57
2022/11/14 04:12:21;;;;;;;1999.90;999.90;;;;;;;4.01;100.00;94195.69;5017126;28;20182;-58
2022/11/14 04:14:46;;;;;;;1999.90;999.90;;;;;;;4.00;100.00;94184.13;5016990;28;20174;-58
2022/11/14 04:17:11;;;;;;;1999.90;999.90;;;;;;;3.97;100.00;94179.50;5016994;28;20206;-58
2022/11/14 04:19:37;;;;;;;1999.90;999.90;;;;;;;4.07;100.00;94172.53;5017180;28;20174;-58
2022/11/14 04:22:02;;;;;;;1999.90;999.90;;;;;;;4.03;100.00;94177.94;5017378;28;20181;-57
2022/11/14 04:24:27;;;;;;;1999.90;999.90;;;;;;;3.98;100.00;94180.28;5017262;28;20179;-58
2022/11/14 04:26:53;;;;;;;1999.90;999.90;;;;;;;3.94;100.00;94184.91;5017283;28;20175;-51
2022/11/14 04:29:18;;;;;;;1999.90;999.90;;;;;;;3.98;100.00;94181.06;5017305;28;20198;-53
2022/11/14 04:31:43;;;;;;;1999.90;999.90;;;;;;;4.02;100.00;94181.03;5017431;28;20178;-53
2022/11/14 04:34:09;;;;;;;1999.90;999.90;;;;;;;4.04;100.00;94178.72;5016444;28;20198;-56
2022/11/14 04:36:34;;;;;;;1999.90;999.90;;;;;;;4.06;100.00;94170.97;5017316;28;20268;-55
2022/11/14 04:39:00;;;;;;;1999.90;999.90;;;;;;;4.09;100.00;94167.50;5017369;28;20175;-54
2022/11/14 04:41:25;;;;;;;1999.90;999.90;;;;;;;4.11;100.00;94151.69;5016526;28;20262;-56
2022/11/14 04:43:50;;;;;;;1999.90;999.90;;;;;;;4.11;100.00;94151.69;5017082;28;20202;-59
2022/11/14 04:46:16;;;;;;;1999.90;999.90;;;;;;;4.13;100.00;94160.16;5016493;28;20282;-58
2022/11/14 04:48:41;;;;;;;1999.90;999.90;;;;;;;3.99;100.00;94165.59;5017194;28;20166;-58
2022/11/14 04:51:06;;;;;;;1999.90;999.90;;;;;;;3.78;100.00;94176.50;5016623;28;20175;-59
2022/11/14 04:53:32;;;;;;;1999.90;999.90;;;;;;;3.74;100.00;94162.97;5016696;28;20174;-58
2022/11/14 04:55:57;;;;;;;1999.90;999.90;;;;;;;3.79;100.00;94142.94;5016839;28;20203;-57
2022/11/14 04:58:23;;;;;;;1999.90;999.90;;;;;;;3.77;100.00;94120.94;5016530;28;20232;-59
2022/11/14 05:00:48;;;;;;;1999.90;999.90;;;;;;;3.71;100.00;94133.31;5016201;28;20178;-59
2022/11/14 05:03:13;;;;;;;1999.90;999.90;;;;;;;3.64;100.00;94123.28;5016485;28;20209;-59
2022/11/14 05:05:38;;;;;;;1999.90;999.90;;;;;;;3.67;100.00;94102.88;5016429;28;20207;-56
2022/11/14 05:08:04;;;;;;;1999.90;999.90;;;;;;;3.68;100.00;94096.31;5016156;28;20183;-58
2022/11/14 05:10:29;;;;;;;1999.90;999.90;;;;;;;3.70;100.00;94085.88;5017423;28;20214;-60
2022/11/14 05:12:55;;;;;;;1999.90;999.90;;;;;;;3.75;100.00;94077.38;5016540;28;20190;-57
2022/11/14 05:15:20;;;;;;;1999.90;999.90;;;;;;;3.81;100.00;94073.09;5020312;28;20625;-57
2022/11/14 05:17:46;;;;;;;1999.90;999.90;;;;;;;3.90;100.00;94062.66;5019750;28;20179;-59
2022/11/14 05:20:11;;;;;;;1999.90;999.90;;;;;;;3.96;100.00;94061.84;5020598;28;20258;-58
2022/11/14 05:22:37;;;;;;;1999.90;999.90;;;;;;;3.98;100.00;94072.25;5019980;28;20186;-57
2022/11/14 05:25:03;;;;;;;1999.90;999.90;;;;;;;3.95;100.00;94073.03;5019610;28;20182;-58
2022/11/14 05:27:28;;;;;;;1999.90;999.90;;;;;;;3.95;100.00;94073.03;5019814;28;20600;-58
2022/11/14 05:29:54;;;;;;;1999.90;999.90;;;;;;;3.93;100.00;94064.59;5019642;28;20241;-58
2022/11/14 05:32:20;;;;;;;1999.90;999.90;;;;;;;3.93;100.00;94068.03;5019573;28;20508;-58
2022/11/14 05:34:45;;;;;;;1999.90;999.90;;;;;;;3.95;100.00;94073.03;5019599;28;20181;-61
2022/11/14 05:37:11;;;;;;;1999.90;999.90;;;;;;;3.89;100.00;94074.63;5019392;28;20202;-59
2022/11/14 05:39:36;;;;;;;1999.90;999.90;;;;;;;3.87;100.00;94074.25;5036958;28;20182;-59
2022/11/14 05:42:01;;;;;;;1999.90;999.90;;;;;;;3.85;100.00;94087.38;5019907;28;20277;-57
2022/11/14 05:44:27;;;;;;;1999.90;999.90;;;;;;;3.78;100.00;94100.91;5019370;28;20182;-56
2022/11/14 05:46:52;;;;;;;1999.90;999.90;;;;;;;3.68;100.00;94128.69;5036562;28;20175;-56
2022/11/14 05:49:17;;;;;;;1999.90;999.90;;;;;;;3.67;100.00;94127.16;5019395;28;20181;-57
2022/11/14 05:51:43;;;;;;;1999.90;999.90;;;;;;;3.60;100.00;94143.38;5019045;28;20661;-55
2022/11/14 05:54:08;;;;;;;1999.90;999.90;;;;;;;3.32;100.00;94141.50;5019535;28;20206;-57
2022/11/14 05:56:33;;;;;;;1999.90;999.90;;;;;;;3.09;100.00;94157.28;5018802;28;20229;-60
2022/11/14 05:58:59;;;;;;;1999.90;999.90;;;;;;;3.05;100.00;94151.91;5018937;28;20665;-55
2022/11/14 06:01:24;;;;;;;1999.90;999.90;;;;;;;3.03;100.00;94177.72;5018999;28;20181;-58
2022/11/14 06:03:49;;;;;;;1999.90;999.90;;;;;;;2.94;100.00;94166.53;5018826;28;20294;-59
2022/11/14 06:06:18;;;;;;;1999.90;999.90;;;;;;;2.82;100.00;94175.78;5018709;28;20580;-58
2022/11/14 06:08:43;;;;;;;1999.90;999.90;;;;;;;2.75;100.00;94170.38;5018787;28;20190;-57
2022/11/14 06:11:13;;;;;;;1999.90;999.90;;;;;;;2.59;100.00;94183.44;5018632;28;20175;-58
2022/11/14 06:13:38;;;;;;;1999.90;999.90;;;;;;;2.66;100.00;94186.16;5018618;28;20181;-58
2022/11/14 06:16:06;;;;;;;1999.90;999.90;;;;;;;2.57;100.00;94193.84;5018666;28;20206;-63
2022/11/14 06:18:32;;;;;;;1999.90;999.90;;;;;;;2.67;100.00;94181.53;5018734;28;20190;-58
2022/11/14 06:21:00;;;;;;;1999.90;999.90;;;;;;;2.59;100.00;94188.06;5018494;28;20182;-55
2022/11/14 06:23:25;;;;;;;1999.90;999.90;;;;;;;2.45;100.00;94191.47;5018471;28;20574;-56
2022/11/14 06:25:50;;;;;;;1999.90;999.90;;;;;;;2.56;100.00;94181.53;5018290;28;20181;-57
2022/11/14 06:28:16;;;;;;;1999.90;999.90;;;;;;;2.63;100.00;94181.50;5018594;28;20183;-56
2022/11/14 06:30:41;;;;;;;1999.90;999.90;;;;;;;2.71;100.00;94175.00;5018183;28;20175;-56
2022/11/14 06:33:06;;;;;;;1999.90;999.90;;;;;;;2.85;100.00;94169.59;5018578;28;20175;-59
2022/11/14 06:35:32;;;;;;;1999.90;999.90;;;;;;;3.03;100.00;94162.31;5018479;28;20214;-60
2022/11/14 06:37:59;;;;;;;1999.90;999.90;;;;;;;3.19;100.00;94160.00;5018126;28;20198;-56
2022/11/14 06:40:24;;;;;;;1999.90;999.90;;;;;;;3.38;100.00;94140.72;5018200;28;20186;-56
2022/11/14 06:42:49;;;;;;;1999.90;999.90;;;;;;;3.57;100.00;94141.44;5018212;28;20224;-58
2022/11/14 06:45:15;;;;;;;1999.90;999.90;;;;;;;3.81;100.00;94132.50;5018574;28;20179;-58
2022/11/14 06:47:40;;;;;;;1999.90;999.90;;;;;;;4.67;100.00;94116.25;5017976;28;20186;-58
2022/11/14 06:50:06;;;;;;;1999.90;999.90;;;;;;;5.80;100.00;94097.81;5018158;28;20191;-56
2022/11/14 06:52:32;;;;;;;1999.90;999.90;;;;;;;6.80;100.00;94140.28;5017606;28;20185;-57
2022/11/14 06:54:57;;;;;;;1999.90;999.90;;;;;;;7.42;100.00;94253.75;5018252;28;20172;-59
2022/11/14 06:57:22;;;;;;;1999.90;999.90;;;;;;;7.78;100.00;94510.97;5017793;28;20282;-58
2022/11/14 06:59:48;;;;;;;1999.90;999.90;;;;;;;8.38;100.00;94695.94;5018433;28;20187;-59
2022/11/14 07:02:13;;;;;;;1999.90;999.90;;;;;;;8.56;100.00;94944.13;5018504;28;20171;-60
2022/11/14 07:04:38;;;;;;;1999.90;999.90;;;;;;;9.16;100.00;95083.28;5017390;28;20260;-61
2022/11/14 07:07:04;;;;;;;1999.90;999.90;;;;;;;9.03;100.00;95193.88;5034240;28;20261;-58
2022/11/14 07:09:29;;;;;;;1999.90;999.90;;;;;;;8.19;100.00;95247.81;5018470;28;20210;-59
2022/11/14 07:11:55;;;;;;;1999.90;999.90;;;;;;;9.23;100.00;95268.50;5017625;28;20172;-57
2022/11/14 07:14:20;;;;;;;1999.90;999.90;;;;;;;10.16;100.00;95285.81;5017639;28;20179;-59
2022/11/14 07:16:45;;;;;;;1999.90;999.90;;;;;;;9.09;100.00;95305.91;5017544;28;20212;-60
2022/11/14 07:19:11;;;;;;;1999.90;999.90;;;;;;;9.32;100.00;95312.41;5017302;28;20173;-60
2022/11/14 07:21:37;;;;;;;1999.90;999.90;;;;;;;10.15;100.00;95301.41;5017893;28;20173;-62
2022/11/14 07:24:03;;;;;;;1999.90;999.90;;;;;;;10.88;100.00;95304.59;5017548;28;20305;-60
2022/11/14 07:26:29;;;;;;;1999.90;999.90;;;;;;;10.75;100.00;95328.16;5017500;28;20184;-59
2022/11/14 07:28:54;;;;;;;1999.90;999.90;;;;;;;9.92;100.00;95329.19;5017319;28;20177;-57
2022/11/14 07:31:20;;;;;;;1999.90;999.90;;;;;;;10.58;100.00;95324.41;5017914;28;20228;-57
2022/11/14 07:33:46;;;;;;;1999.90;999.90;;;;;;;11.00;100.00;95323.22;5017594;28;20169;-57
2022/11/14 07:36:13;;;;;;;1999.90;999.90;;;;;;;10.84;100.00;95325.72;5016178;28;20205;-57
2022/11/14 07:38:39;;;;;;;1999.90;999.90;;;;;;;10.76;100.00;95330.47;5017673;28;20241;-58
2022/11/14 07:41:06;;;;;;;1999.90;999.90;;;;;;;10.72;100.00;95327.00;5017186;28;20570;-58
2022/11/14 07:43:32;;;;;;;1999.90;999.90;;;;;;;10.94;100.00;95330.28;5017291;28;20181;-58
2022/11/14 07:45:59;;;;;;;1999.90;999.90;;;;;;;10.86;100.00;95328.81;5017108;28;20171;-59
2022/11/14 07:48:24;;;;;;;1999.90;999.90;;;;;;;11.27;100.00;95326.78;5017755;28;20210;-59
2022/11/14 07:50:49;;;;;;;1999.90;999.90;;;;;;;11.37;100.00;95317.69;5017634;28;20216;-58
2022/11/14 07:53:16;;;;;;;1999.90;999.90;;;;;;;11.97;100.00;95314.94;5017670;28;20194;-58
2022/11/14 07:55:41;;;;;;;1999.90;999.90;;;;;;;12.09;100.00;95317.09;5034516;28;20193;-58
2022/11/14 07:58:07;;;;;;;1999.90;999.90;;;;;;;12.50;100.00;95312.13;5017349;28;20226;-58
2022/11/14 08:00:32;;;;;;;1999.90;999.90;;;;;;;12.44;100.00;95311.84;5017003;28;20198;-58
2022/11/14 08:02:57;;;;;;;1999.90;999.90;;;;;;;12.24;100.00;95313.72;5016944;28;20166;-58
2022/11/14 08:05:23;;;;;;;1999.90;999.90;;;;;;;12.16;100.00;95311.50;5017191;28;20198;-55
2022/11/14 08:07:52;;;;;;;1999.90;999.90;;;;;;;12.21;100.00;95298.13;5016999;28;20170;-66
2022/11/14 08:10:18;;;;;;;1999.90;999.90;;;;;;;11.81;100.00;95296.41;5016923;28;20270;-61
2022/11/14 08:12:44;;;;;;;1999.90;999.90;;;;;;;11.31;100.00;95300.19;5016917;28;20182;-59
2022/11/14 08:15:11;;;;;;;1999.90;999.90;;;;;;;10.69;100.00;95302.47;5016590;28;20171;-60
2022/11/14 08:17:36;;;;;;;1999.90;999.90;;;;;;;10.81;100.00;95299.22;5016746;28;20181;-60
2022/11/14 08:20:03;;;;;;;1999.90;999.90;;;;;;;11.04;100.00;95291.91;5016838;28;20179;-61
2022/11/14 08:22:29;;;;;;;1999.90;999.90;;;;;;;11.05;100.00;95281.75;5016537;28;20175;-61
2022/11/14 08:24:55;;;;;;;1999.90;999.90;;;;;;;11.26;100.00;95270.56;5016820;28;20167;-58
2022/11/14 08:27:21;;;;;;;1999.90;999.90;;;;;;;11.65;100.00;95282.56;5033432;28;20181;-57
2022/11/14 08:29:46;;;;;;;1999.90;999.90;;;;;;;11.24;100.00;95281.13;5017312;28;20182;-57
2022/11/14 08:32:11;;;;;;;1999.90;999.90;;;;;;;11.54;100.00;95275.69;5016443;28;20273;-58
2022/11/14 08:34:37;;;;;;;1999.90;999.90;;;;;;;11.50;100.00;95278.44;5016570;28;20239;-58
2022/11/14 08:37:02;;;;;;;1999.90;999.90;;;;;;;11.79;100.00;95276.09;5016541;28;20690;-58
2022/11/14 08:39:28;;;;;;;1999.90;999.90;;;;;;;11.87;100.00;95286.53;5016856;28;20209;-58
2022/11/14 08:41:54;;;;;;;1999.90;999.90;;;;;;;11.90;100.00;95293.13;5016460;28;20235;-59
2022/11/14 08:44:19;;;;;;;1999.90;999.90;;;;;;;12.43;100.00;95291.09;5016730;28;20175;-60
2022/11/14 08:46:45;;;;;;;1999.90;999.90;;;;;;;12.07;100.00;95289.38;5016185;28;20217;-59
2022/11/14 08:49:10;;;;;;;1999.90;999.90;;;;;;;12.09;100.00;95295.22;5020697;28;20232;-60
2022/11/14 08:51:35;;;;;;;1999.90;999.90;;;;;;;12.22;100.00;95282.47;5020870;28;20185;-61
2022/11/14 08:54:01;;;;;;;1999.90;999.90;;;;;;;11.75;100.00;95297.28;5020828;28;20175;-60
2022/11/14 08:56:26;;;;;;;1999.90;999.90;;;;;;;10.42;100.00;95296.09;5020694;28;20213;-59
2022/11/14 08:58:52;;;;;;;1999.90;999.90;;;;;;;10.92;100.00;95283.50;5019773;28;20313;-59
2022/11/14 09:01:17;;;;;;;1999.90;999.90;;;;;;;11.13;100.00;95280.50;5020235;28;20198;-59
2022/11/14 09:03:42;;;;;;;1999.90;999.90;;;;;;;11.83;100.00;95280.34;5020132;28;20281;-68
2022/11/14 09:06:08;;;;;;;1999.90;999.90;;;;;;;12.34;100.00;95268.19;5020269;28;20698;-67
2022/11/14 09:08:33;;;;;;;1999.90;999.90;;;;;;;12.39;100.00;95270.47;5020572;28;20288;-67
2022/11/14 09:11:00;;;;;;;1999.90;999.90;;;;;;;12.14;100.00;95267.34;5020211;28;20183;-68
2022/11/14 09:13:26;;;;;;;1999.90;999.90;;;;;;;12.39;100.00;95275.94;5019983;28;20242;-67
2022/11/14 09:15:51;;;;;;;1999.90;999.90;;;;;;;12.64;100.00;95281.75;5019800;28;20293;-67
2022/11/14 09:18:17;;;;;;;1999.90;999.90;;;;;;;12.12;100.00;95288.88;5019809;28;20221;-67
2022/11/14 09:20:42;;;;;;;1999.90;999.90;;;;;;;11.62;100.00;95293.56;5019278;28;20170;-60
2022/11/14 09:23:08;;;;;;;1999.90;999.90;;;;;;;11.79;100.00;95287.03;5020110;28;20178;-63
2022/11/14 09:25:35;;;;;;;1999.90;999.90;;;;;;;11.36;100.00;95286.84;5020075;28;20239;-62
2022/11/14 09:28:05;;;;;;;1999.90;999.90;;;;;;;11.37;100.00;95273.94;5019663;28;20598;-61
2022/11/14 09:30:32;;;;;;;1999.90;999.90;;;;;;;11.55;100.00;95274.47;5019636;28;20175;-62
2022/11/14 09:33:02;;;;;;;1999.90;999.90;;;;;;;12.04;100.00;95281.97;5019540;28;20515;-63
2022/11/14 09:35:29;;;;;;;1999.90;999.90;;;;;;;12.17;100.00;95280.97;5019141;28;20230;-62
2022/11/14 09:38:13;;;;;;;1999.90;999.90;;;;;;;12.31;100.00;95285.47;5019686;28;20175;-67
2022/11/14 09:40:47;;;;;;;1999.90;999.90;;;;;;;12.37;100.00;95294.72;5020141;28;20227;-60
2022/11/14 09:43:33;;;;;;;1999.90;999.90;;;;;;;12.92;100.00;95303.13;5020241;28;20190;-59
2022/11/14 09:46:00;;;;;;;1999.90;999.90;;;;;;;13.34;100.00;95305.09;5019762;28;20179;-59
2022/11/14 09:48:29;;;;;;;1999.90;999.90;;;;;;;14.13;100.00;95297.50;5019884;28;20191;-58
2022/11/14 09:51:15;;;;;;;1999.90;999.90;;;;;;;14.86;100.00;95295.66;5019627;28;20177;-58
2022/11/14 09:54:11;;;;;;;1999.90;999.90;;;;;;;15.05;100.00;95292.00;5019128;28;20628;-59
2022/11/14 09:56:36;;;;;;;1999.90;999.90;;;;;;;15.28;100.00;95282.72;4998793;28;20238;-54
2022/11/14 09:59:02;;;;;;;1999.90;999.90;;;;;;;15.17;100.00;95283.03;5018242;28;20211;-59
2022/11/14 10:01:38;;;;;;;1999.90;999.90;;;;;;;15.17;100.00;95288.53;5035317;28;20182;-59
2022/11/14 10:04:10;;;;;;;1999.90;999.90;;;;;;;15.73;100.00;95297.94;5019362;28;20222;-59
2022/11/14 10:07:10;;;;;;;1999.90;999.90;;;;;;;15.76;100.00;95308.09;5019034;28;20175;-59
2022/11/14 10:09:57;;;;;;;1999.90;999.90;;;;;;;15.35;100.00;95299.84;5007731;28;20194;-60
2022/11/14 10:12:30;;;;;;;1999.90;999.90;;;;;;;15.92;100.00;95298.97;5018953;28;20175;-59
2022/11/14 10:14:58;;;;;;;1999.90;999.90;;;;;;;16.08;100.00;95302.41;5018837;28;20178;-53
2022/11/14 10:17:48;;;;;;;1999.90;999.90;;;;;;;15.77;100.00;95304.13;5019120;28;20202;-59
2022/11/14 10:20:22;;;;;;;1999.90;999.90;;;;;;;15.74;100.00;95299.47;5019147;28;20201;-60
2022/11/14 10:23:06;;;;;;;1999.90;999.90;;;;;;;16.13;100.00;95288.06;5018564;28;20186;-59
2022/11/14 10:25:34;;;;;;;1999.90;999.90;;;;;;;16.13;100.00;95290.03;5019070;28;20186;-60
2022/11/14 10:28:14;;;;;;;1999.90;999.90;;;;;;;16.22;100.00;95288.16;5018480;28;20228;-60
2022/11/14 10:30:50;;;;;;;1999.90;999.90;;;;;;;16.31;100.00;95281.97;5018654;28;20178;-60
2022/11/14 10:33:33;;;;;;;1999.90;999.90;;;;;;;15.99;100.00;95282.22;5018775;28;20261;-59
2022/11/14 10:36:18;;;;;;;1999.90;999.90;;;;;;;15.69;100.00;95279.97;5018545;28;20233;-59
2022/11/14 10:38:55;;;;;;;1999.90;999.90;;;;;;;15.32;100.00;95289.69;5018473;28;20233;-60
2022/11/14 10:41:24;;;;;;;1999.90;999.90;;;;;;;14.84;100.00;95286.31;5018810;28;20174;-59
2022/11/14 10:43:50;;;;;;;1999.90;999.90;;;;;;;14.66;100.00;95281.28;5018189;28;20178;-60
2022/11/14 10:46:40;;;;;;;1999.90;999.90;;;;;;;14.53;100.00;95283.16;5017853;28;20178;-59
2022/11/14 10:49:19;;;;;;;1999.90;999.90;;;;;;;14.28;100.00;95290.47;5017896;28;20175;-59
2022/11/14 10:51:54;;;;;;;1999.90;999.90;;;;;;;13.88;100.00;95298.03;5017930;28;20266;-59